sensor_id;sensor_type;location;lat;lon;timestamp;temperature;humidity
77985;DHT22;67177;47.240;-1.546;2023-04-24T06:51:08;11.70;69.90
77985;DHT22;67177;47.240;-1.546;2023-04-24T06:53:34;11.50;70.70
77985;DHT22;67177;47.240;-1.546;2023-04-24T06:56:00;11.50;71.50
77985;DHT22;67177;47.240;-1.546;2023-04-24T06:58:26;11.60;72.10
77985;DHT22;67177;47.240;-1.546;2023-04-24T07:00:52;11.60;72.50
77985;DHT22;67177;47.240;-1.546;2023-04-24T07:03:17;11.80;72.50
77985;DHT22;67177;47.240;-1.546;2023-04-24T07:05:43;12.00;72.10
77985;DHT22;67177;47.240;-1.546;2023-04-24T07:08:09;12.20;72.00
77985;DHT22;67177;47.240;-1.546;2023-04-24T07:10:36;12.40;71.80
77985;DHT22;67177;47.240;-1.546;2023-04-24T07:13:02;12.40;71.60
77985;DHT22;67177;47.240;-1.546;2023-04-24T07:15:28;12.50;71.40
77985;DHT22;67177;47.240;-1.546;2023-04-24T07:17:53;12.60;71.20
77985;DHT22;67177;47.240;-1.546;2023-04-24T07:20:19;12.60;71.10
77985;DHT22;67177;47.240;-1.546;2023-04-24T07:22:45;12.70;70.70
77985;DHT22;67177;47.240;-1.546;2023-04-24T07:25:10;12.70;70.70
77985;DHT22;67177;47.240;-1.546;2023-04-24T07:27:36;12.90;70.20
77985;DHT22;67177;47.240;-1.546;2023-04-24T07:30:03;13.00;70.00
77985;DHT22;67177;47.240;-1.546;2023-04-24T07:32:29;13.10;69.30
77985;DHT22;67177;47.240;-1.546;2023-04-24T07:34:55;13.30;68.90
77985;DHT22;67177;47.240;-1.546;2023-04-24T07:37:21;13.40;68.60
77985;DHT22;67177;47.240;-1.546;2023-04-24T07:39:46;13.40;68.50
77985;DHT22;67177;47.240;-1.546;2023-04-24T07:42:12;13.40;67.90
77985;DHT22;67177;47.240;-1.546;2023-04-24T07:44:38;13.40;68.10
77985;DHT22;67177;47.240;-1.546;2023-04-24T07:47:03;13.50;68.00
77985;DHT22;67177;47.240;-1.546;2023-04-24T07:49:29;13.50;67.70
77985;DHT22;67177;47.240;-1.546;2023-04-24T07:51:55;13.50;67.40
77985;DHT22;67177;47.240;-1.546;2023-04-24T07:54:20;13.60;66.90
77985;DHT22;67177;47.240;-1.546;2023-04-24T07:56:46;13.50;66.80
77985;DHT22;67177;47.240;-1.546;2023-04-24T07:59:12;13.60;66.70
77985;DHT22;67177;47.240;-1.546;2023-04-24T08:01:37;13.60;66.50
77985;DHT22;67177;47.240;-1.546;2023-04-24T08:04:03;13.80;66.50
77985;DHT22;67177;47.240;-1.546;2023-04-24T08:06:29;14.00;66.30
77985;DHT22;67177;47.240;-1.546;2023-04-24T08:08:59;14.20;66.00
77985;DHT22;67177;47.240;-1.546;2023-04-24T08:11:26;14.20;65.80
77985;DHT22;67177;47.240;-1.546;2023-04-24T08:13:51;14.20;65.80
77985;DHT22;67177;47.240;-1.546;2023-04-24T08:16:17;14.10;66.00
77985;DHT22;67177;47.240;-1.546;2023-04-24T08:18:43;14.00;66.00
77985;DHT22;67177;47.240;-1.546;2023-04-24T08:21:09;14.00;65.50
77985;DHT22;67177;47.240;-1.546;2023-04-24T08:23:34;13.90;65.50
77985;DHT22;67177;47.240;-1.546;2023-04-24T08:26:00;13.90;65.20
77985;DHT22;67177;47.240;-1.546;2023-04-24T08:28:26;13.90;64.80
77985;DHT22;67177;47.240;-1.546;2023-04-24T08:30:51;13.90;64.90
77985;DHT22;67177;47.240;-1.546;2023-04-24T08:33:23;13.90;65.00
77985;DHT22;67177;47.240;-1.546;2023-04-24T08:35:49;14.00;65.00
77985;DHT22;67177;47.240;-1.546;2023-04-24T08:38:16;14.10;64.70
77985;DHT22;67177;47.240;-1.546;2023-04-24T08:40:42;14.40;64.50
77985;DHT22;67177;47.240;-1.546;2023-04-24T08:43:08;14.60;63.30
77985;DHT22;67177;47.240;-1.546;2023-04-24T08:45:35;14.50;62.90
77985;DHT22;67177;47.240;-1.546;2023-04-24T08:48:02;14.40;63.00
77985;DHT22;67177;47.240;-1.546;2023-04-24T08:50:29;14.30;63.40
77985;DHT22;67177;47.240;-1.546;2023-04-24T08:52:57;14.40;63.00
77985;DHT22;67177;47.240;-1.546;2023-04-24T08:55:24;14.50;62.90
77985;DHT22;67177;47.240;-1.546;2023-04-24T08:57:52;14.40;62.60
77985;DHT22;67177;47.240;-1.546;2023-04-24T09:00:20;14.40;62.70
77985;DHT22;67177;47.240;-1.546;2023-04-24T09:02:48;14.30;62.20
77985;DHT22;67177;47.240;-1.546;2023-04-24T09:05:16;14.30;62.40
77985;DHT22;67177;47.240;-1.546;2023-04-24T09:07:45;14.20;62.60
77985;DHT22;67177;47.240;-1.546;2023-04-24T09:10:12;14.10;62.40
77985;DHT22;67177;47.240;-1.546;2023-04-24T09:12:38;14.10;62.40
77985;DHT22;67177;47.240;-1.546;2023-04-24T09:15:04;14.10;62.00
77985;DHT22;67177;47.240;-1.546;2023-04-24T09:17:33;14.20;61.90
77985;DHT22;67177;47.240;-1.546;2023-04-24T09:19:59;14.20;61.90
77985;DHT22;67177;47.240;-1.546;2023-04-24T09:22:25;14.20;61.80
77985;DHT22;67177;47.240;-1.546;2023-04-24T09:25:06;14.20;61.60
77985;DHT22;67177;47.240;-1.546;2023-04-24T09:27:33;14.30;61.00
77985;DHT22;67177;47.240;-1.546;2023-04-24T09:29:59;14.40;60.90
77985;DHT22;67177;47.240;-1.546;2023-04-24T09:32:26;14.50;60.60
77985;DHT22;67177;47.240;-1.546;2023-04-24T09:35:13;14.50;60.60
77985;DHT22;67177;47.240;-1.546;2023-04-24T09:37:41;14.40;60.40
77985;DHT22;67177;47.240;-1.546;2023-04-24T09:42:37;14.40;59.30
77985;DHT22;67177;47.240;-1.546;2023-04-24T09:45:04;14.40;58.80
77985;DHT22;67177;47.240;-1.546;2023-04-24T09:47:37;14.30;58.90
77985;DHT22;67177;47.240;-1.546;2023-04-24T09:50:11;14.20;59.40
77985;DHT22;67177;47.240;-1.546;2023-04-24T09:52:40;14.00;59.60
77985;DHT22;67177;47.240;-1.546;2023-04-24T09:55:18;13.90;59.40
77985;DHT22;67177;47.240;-1.546;2023-04-24T09:57:57;13.80;59.60
77985;DHT22;67177;47.240;-1.546;2023-04-24T10:00:24;13.70;59.60
77985;DHT22;67177;47.240;-1.546;2023-04-24T10:02:55;13.80;59.40
77985;DHT22;67177;47.240;-1.546;2023-04-24T10:05:36;13.90;59.30
77985;DHT22;67177;47.240;-1.546;2023-04-24T10:10:29;14.20;57.20
77985;DHT22;67177;47.240;-1.546;2023-04-24T10:12:55;14.40;57.40
77985;DHT22;67177;47.240;-1.546;2023-04-24T10:15:21;14.50;57.50
77985;DHT22;67177;47.240;-1.546;2023-04-24T10:17:50;14.50;57.30
77985;DHT22;67177;47.240;-1.546;2023-04-24T10:20:23;14.50;56.90
77985;DHT22;67177;47.240;-1.546;2023-04-24T10:22:52;14.50;56.60
77985;DHT22;67177;47.240;-1.546;2023-04-24T10:25:21;14.50;56.50
77985;DHT22;67177;47.240;-1.546;2023-04-24T10:27:47;14.60;56.30
77985;DHT22;67177;47.240;-1.546;2023-04-24T10:30:14;14.80;55.90
77985;DHT22;67177;47.240;-1.546;2023-04-24T10:32:40;14.80;56.10
77985;DHT22;67177;47.240;-1.546;2023-04-24T10:35:10;14.80;56.40
77985;DHT22;67177;47.240;-1.546;2023-04-24T10:37:39;14.90;56.10
77985;DHT22;67177;47.240;-1.546;2023-04-24T10:40:07;15.20;55.80
77985;DHT22;67177;47.240;-1.546;2023-04-24T10:42:34;15.60;55.20
77985;DHT22;67177;47.240;-1.546;2023-04-24T10:45:04;15.90;54.90
77985;DHT22;67177;47.240;-1.546;2023-04-24T10:47:30;16.00;55.20
77985;DHT22;67177;47.240;-1.546;2023-04-24T10:50:09;16.10;55.40
77985;DHT22;67177;47.240;-1.546;2023-04-24T10:52:49;16.20;55.00
77985;DHT22;67177;47.240;-1.546;2023-04-24T10:55:41;16.50;54.60
77985;DHT22;67177;47.240;-1.546;2023-04-24T10:58:06;16.70;54.20
77985;DHT22;67177;47.240;-1.546;2023-04-24T11:00:32;17.00;54.40
77985;DHT22;67177;47.240;-1.546;2023-04-24T11:03:05;17.10;54.00
77985;DHT22;67177;47.240;-1.546;2023-04-24T11:05:51;17.20;53.70
77985;DHT22;67177;47.240;-1.546;2023-04-24T11:11:08;17.40;52.30
77985;DHT22;67177;47.240;-1.546;2023-04-24T11:32:28;17.70;51.10
77985;DHT22;67177;47.240;-1.546;2023-04-24T11:35:00;17.60;50.90
77985;DHT22;67177;47.240;-1.546;2023-04-24T11:40:02;17.60;50.90
77985;DHT22;67177;47.240;-1.546;2023-04-24T11:42:37;17.40;51.20
77985;DHT22;67177;47.240;-1.546;2023-04-24T11:45:08;17.10;51.20
77985;DHT22;67177;47.240;-1.546;2023-04-24T11:47:34;16.90;51.70
77985;DHT22;67177;47.240;-1.546;2023-04-24T11:50:00;16.70;52.00
77985;DHT22;67177;47.240;-1.546;2023-04-24T11:52:26;16.60;51.90
77985;DHT22;67177;47.240;-1.546;2023-04-24T11:54:52;16.50;52.10
77985;DHT22;67177;47.240;-1.546;2023-04-24T11:57:25;16.70;51.80
77985;DHT22;67177;47.240;-1.546;2023-04-24T11:59:53;16.80;52.10
77985;DHT22;67177;47.240;-1.546;2023-04-24T12:02:21;17.00;52.20
77985;DHT22;67177;47.240;-1.546;2023-04-24T12:04:47;17.10;52.60
77985;DHT22;67177;47.240;-1.546;2023-04-24T12:07:12;17.10;52.50
77985;DHT22;67177;47.240;-1.546;2023-04-24T12:09:49;17.10;52.30
77985;DHT22;67177;47.240;-1.546;2023-04-24T12:12:17;17.00;52.70
77985;DHT22;67177;47.240;-1.546;2023-04-24T12:14:52;17.20;52.60
77985;DHT22;67177;47.240;-1.546;2023-04-24T12:17:23;17.20;52.20
77985;DHT22;67177;47.240;-1.546;2023-04-24T12:19:48;17.10;52.40
77985;DHT22;67177;47.240;-1.546;2023-04-24T12:22:16;17.10;52.40
77985;DHT22;67177;47.240;-1.546;2023-04-24T12:25:01;17.10;52.60
77985;DHT22;67177;47.240;-1.546;2023-04-24T12:27:34;17.20;52.60
77985;DHT22;67177;47.240;-1.546;2023-04-24T12:30:00;17.30;52.30
77985;DHT22;67177;47.240;-1.546;2023-04-24T12:32:27;17.30;52.10
77985;DHT22;67177;47.240;-1.546;2023-04-24T12:34:53;17.30;52.10
77985;DHT22;67177;47.240;-1.546;2023-04-24T12:37:19;17.30;51.90
77985;DHT22;67177;47.240;-1.546;2023-04-24T12:40:06;17.20;52.30
77985;DHT22;67177;47.240;-1.546;2023-04-24T12:42:32;16.90;52.20
77985;DHT22;67177;47.240;-1.546;2023-04-24T12:45:05;16.90;52.30
77985;DHT22;67177;47.240;-1.546;2023-04-24T12:47:32;17.10;52.50
77985;DHT22;67177;47.240;-1.546;2023-04-24T12:49:59;17.10;52.90
77985;DHT22;67177;47.240;-1.546;2023-04-24T12:52:26;17.10;52.70
77985;DHT22;67177;47.240;-1.546;2023-04-24T12:54:56;17.00;52.40
77985;DHT22;67177;47.240;-1.546;2023-04-24T12:57:26;16.90;52.50
77985;DHT22;67177;47.240;-1.546;2023-04-24T12:59:55;17.00;52.50
77985;DHT22;67177;47.240;-1.546;2023-04-24T13:02:22;17.00;52.80
77985;DHT22;67177;47.240;-1.546;2023-04-24T13:04:48;17.00;52.50
77985;DHT22;67177;47.240;-1.546;2023-04-24T13:07:14;17.10;52.30
77985;DHT22;67177;47.240;-1.546;2023-04-24T13:09:44;17.30;51.40
77985;DHT22;67177;47.240;-1.546;2023-04-24T13:12:11;17.30;51.70
77985;DHT22;67177;47.240;-1.546;2023-04-24T13:14:37;17.30;51.70
77985;DHT22;67177;47.240;-1.546;2023-04-24T13:17:03;17.20;51.90
77985;DHT22;67177;47.240;-1.546;2023-04-24T13:19:34;17.30;51.90
77985;DHT22;67177;47.240;-1.546;2023-04-24T13:22:00;17.40;51.70
77985;DHT22;67177;47.240;-1.546;2023-04-24T13:24:26;17.60;51.60
77985;DHT22;67177;47.240;-1.546;2023-04-24T13:26:52;17.70;51.60
77985;DHT22;67177;47.240;-1.546;2023-04-24T13:29:18;17.60;51.60
77985;DHT22;67177;47.240;-1.546;2023-04-24T13:31:44;17.40;51.40
77985;DHT22;67177;47.240;-1.546;2023-04-24T13:34:10;17.40;51.30
77985;DHT22;67177;47.240;-1.546;2023-04-24T13:36:36;17.50;51.30
77985;DHT22;67177;47.240;-1.546;2023-04-24T13:39:02;17.60;50.70
77985;DHT22;67177;47.240;-1.546;2023-04-24T13:41:30;17.60;50.50
77985;DHT22;67177;47.240;-1.546;2023-04-24T13:43:56;17.40;49.40
77985;DHT22;67177;47.240;-1.546;2023-04-24T13:46:21;17.10;49.40
77985;DHT22;67177;47.240;-1.546;2023-04-24T13:48:47;17.00;49.50
77985;DHT22;67177;47.240;-1.546;2023-04-24T13:51:13;16.90;49.80
77985;DHT22;67177;47.240;-1.546;2023-04-24T13:53:38;16.80;49.90
77985;DHT22;67177;47.240;-1.546;2023-04-24T13:56:04;16.70;49.90
77985;DHT22;67177;47.240;-1.546;2023-04-24T13:58:31;16.60;50.10
77985;DHT22;67177;47.240;-1.546;2023-04-24T14:00:57;16.50;50.20
77985;DHT22;67177;47.240;-1.546;2023-04-24T14:03:23;16.60;50.30
77985;DHT22;67177;47.240;-1.546;2023-04-24T14:05:49;16.60;49.90
77985;DHT22;67177;47.240;-1.546;2023-04-24T14:08:14;16.60;49.60
77985;DHT22;67177;47.240;-1.546;2023-04-24T14:10:40;16.60;49.70
77985;DHT22;67177;47.240;-1.546;2023-04-24T14:13:05;16.70;49.90
77985;DHT22;67177;47.240;-1.546;2023-04-24T14:15:31;16.90;49.50
77985;DHT22;67177;47.240;-1.546;2023-04-24T14:17:57;17.00;49.60
77985;DHT22;67177;47.240;-1.546;2023-04-24T14:20:23;17.30;49.70
77985;DHT22;67177;47.240;-1.546;2023-04-24T14:22:48;17.40;49.80
77985;DHT22;67177;47.240;-1.546;2023-04-24T14:25:14;17.40;49.40
77985;DHT22;67177;47.240;-1.546;2023-04-24T14:27:40;17.40;49.60
77985;DHT22;67177;47.240;-1.546;2023-04-24T14:30:07;17.40;49.60
77985;DHT22;67177;47.240;-1.546;2023-04-24T14:32:33;17.40;49.90
77985;DHT22;67177;47.240;-1.546;2023-04-24T14:34:58;17.30;50.20
77985;DHT22;67177;47.240;-1.546;2023-04-24T14:37:24;17.40;49.80
77985;DHT22;67177;47.240;-1.546;2023-04-24T14:39:50;17.40;49.30
77985;DHT22;67177;47.240;-1.546;2023-04-24T14:42:15;17.20;49.20
77985;DHT22;67177;47.240;-1.546;2023-04-24T14:44:42;17.10;48.90
77985;DHT22;67177;47.240;-1.546;2023-04-24T14:47:08;17.00;48.90
77985;DHT22;67177;47.240;-1.546;2023-04-24T14:49:33;17.00;48.60
77985;DHT22;67177;47.240;-1.546;2023-04-24T14:51:59;17.00;48.30
77985;DHT22;67177;47.240;-1.546;2023-04-24T14:54:25;16.80;48.40
77985;DHT22;67177;47.240;-1.546;2023-04-24T14:56:51;16.60;48.60
77985;DHT22;67177;47.240;-1.546;2023-04-24T14:59:16;16.40;48.70
77985;DHT22;67177;47.240;-1.546;2023-04-24T15:01:42;16.10;48.80
77985;DHT22;67177;47.240;-1.546;2023-04-24T15:04:08;16.10;48.90
77985;DHT22;67177;47.240;-1.546;2023-04-24T15:06:33;16.00;48.60
77985;DHT22;67177;47.240;-1.546;2023-04-24T15:08:59;16.00;48.50
77985;DHT22;67177;47.240;-1.546;2023-04-24T15:11:25;16.10;48.60
77985;DHT22;67177;47.240;-1.546;2023-04-24T15:13:51;16.40;49.00
77985;DHT22;67177;47.240;-1.546;2023-04-24T15:16:17;16.50;49.30
77985;DHT22;67177;47.240;-1.546;2023-04-24T15:18:42;16.60;49.20
77985;DHT22;67177;47.240;-1.546;2023-04-24T15:21:08;16.70;49.00
77985;DHT22;67177;47.240;-1.546;2023-04-24T15:23:34;16.80;49.00
77985;DHT22;67177;47.240;-1.546;2023-04-24T15:26:00;16.90;49.10
77985;DHT22;67177;47.240;-1.546;2023-04-24T15:28:26;16.90;49.00
77985;DHT22;67177;47.240;-1.546;2023-04-24T15:30:52;16.90;49.20
77985;DHT22;67177;47.240;-1.546;2023-04-24T15:33:17;16.90;49.30
77985;DHT22;67177;47.240;-1.546;2023-04-24T15:35:43;16.90;49.40
77985;DHT22;67177;47.240;-1.546;2023-04-24T15:38:08;16.70;49.70
77985;DHT22;67177;47.240;-1.546;2023-04-24T15:40:34;16.60;49.50
77985;DHT22;67177;47.240;-1.546;2023-04-24T15:43:00;16.60;49.50
77985;DHT22;67177;47.240;-1.546;2023-04-24T15:45:26;16.70;49.70
77985;DHT22;67177;47.240;-1.546;2023-04-24T15:47:51;16.90;49.70
77985;DHT22;67177;47.240;-1.546;2023-04-24T15:50:17;17.10;49.30
77985;DHT22;67177;47.240;-1.546;2023-04-24T15:52:43;17.20;49.30
77985;DHT22;67177;47.240;-1.546;2023-04-24T15:55:10;17.20;48.80
77985;DHT22;67177;47.240;-1.546;2023-04-24T15:57:35;17.30;48.70
77985;DHT22;67177;47.240;-1.546;2023-04-24T16:00:03;17.30;48.80
77985;DHT22;67177;47.240;-1.546;2023-04-24T16:02:31;17.20;48.80
77985;DHT22;67177;47.240;-1.546;2023-04-24T16:04:57;17.10;48.10
77985;DHT22;67177;47.240;-1.546;2023-04-24T16:07:22;17.00;48.10
77985;DHT22;67177;47.240;-1.546;2023-04-24T16:09:48;16.80;48.20
77985;DHT22;67177;47.240;-1.546;2023-04-24T16:12:14;16.70;48.70
77985;DHT22;67177;47.240;-1.546;2023-04-24T16:14:40;16.60;48.90
77985;DHT22;67177;47.240;-1.546;2023-04-24T16:17:06;16.50;48.60
77985;DHT22;67177;47.240;-1.546;2023-04-24T16:19:32;16.50;48.40
77985;DHT22;67177;47.240;-1.546;2023-04-24T16:22:01;16.50;48.50
77985;DHT22;67177;47.240;-1.546;2023-04-24T16:24:27;16.30;48.50
77985;DHT22;67177;47.240;-1.546;2023-04-24T16:26:54;16.20;48.90
77985;DHT22;67177;47.240;-1.546;2023-04-24T16:29:20;16.00;49.20
77985;DHT22;67177;47.240;-1.546;2023-04-24T16:31:46;16.00;49.40
77985;DHT22;67177;47.240;-1.546;2023-04-24T16:34:11;15.90;49.60
77985;DHT22;67177;47.240;-1.546;2023-04-24T16:36:37;15.80;49.80
77985;DHT22;67177;47.240;-1.546;2023-04-24T16:39:03;15.80;49.80
77985;DHT22;67177;47.240;-1.546;2023-04-24T16:41:30;15.60;49.70
77985;DHT22;67177;47.240;-1.546;2023-04-24T16:43:56;15.60;49.70
77985;DHT22;67177;47.240;-1.546;2023-04-24T16:46:22;15.50;49.70
77985;DHT22;67177;47.240;-1.546;2023-04-24T16:48:48;15.50;49.80
77985;DHT22;67177;47.240;-1.546;2023-04-24T16:51:13;15.40;49.70
77985;DHT22;67177;47.240;-1.546;2023-04-24T16:53:39;15.30;49.60
77985;DHT22;67177;47.240;-1.546;2023-04-24T16:56:05;15.20;49.60
77985;DHT22;67177;47.240;-1.546;2023-04-24T16:58:31;15.10;49.80
77985;DHT22;67177;47.240;-1.546;2023-04-24T17:00:57;15.10;50.10
77985;DHT22;67177;47.240;-1.546;2023-04-24T17:03:23;15.00;50.30
77985;DHT22;67177;47.240;-1.546;2023-04-24T17:05:49;15.00;50.40
77985;DHT22;67177;47.240;-1.546;2023-04-24T17:08:15;15.00;50.40
77985;DHT22;67177;47.240;-1.546;2023-04-24T17:10:41;15.00;50.50
77985;DHT22;67177;47.240;-1.546;2023-04-24T17:13:07;14.90;50.70
77985;DHT22;67177;47.240;-1.546;2023-04-24T17:15:33;14.90;50.60
77985;DHT22;67177;47.240;-1.546;2023-04-24T17:18:00;14.90;50.70
77985;DHT22;67177;47.240;-1.546;2023-04-24T17:20:26;14.90;50.80
77985;DHT22;67177;47.240;-1.546;2023-04-24T17:22:52;14.80;50.70
77985;DHT22;67177;47.240;-1.546;2023-04-24T17:25:17;14.80;51.00
77985;DHT22;67177;47.240;-1.546;2023-04-24T17:27:44;14.70;51.10
77985;DHT22;67177;47.240;-1.546;2023-04-24T17:30:10;14.70;51.20
77985;DHT22;67177;47.240;-1.546;2023-04-24T17:32:36;14.70;51.40
77985;DHT22;67177;47.240;-1.546;2023-04-24T17:35:02;14.70;51.90
77985;DHT22;67177;47.240;-1.546;2023-04-24T17:37:28;14.60;52.20
77985;DHT22;67177;47.240;-1.546;2023-04-24T17:39:53;14.60;52.10
77985;DHT22;67177;47.240;-1.546;2023-04-24T17:42:19;14.50;52.20
77985;DHT22;67177;47.240;-1.546;2023-04-24T17:44:45;14.50;52.50
77985;DHT22;67177;47.240;-1.546;2023-04-24T17:47:11;14.40;52.50
77985;DHT22;67177;47.240;-1.546;2023-04-24T17:49:38;14.40;52.90
77985;DHT22;67177;47.240;-1.546;2023-04-24T17:52:04;14.30;52.90
77985;DHT22;67177;47.240;-1.546;2023-04-24T17:54:30;14.30;53.20
77985;DHT22;67177;47.240;-1.546;2023-04-24T17:56:56;14.30;53.50
77985;DHT22;67177;47.240;-1.546;2023-04-24T17:59:21;14.20;53.70
77985;DHT22;67177;47.240;-1.546;2023-04-24T18:01:48;14.20;53.90
77985;DHT22;67177;47.240;-1.546;2023-04-24T18:04:15;14.20;54.10
77985;DHT22;67177;47.240;-1.546;2023-04-24T18:06:40;14.10;54.20
77985;DHT22;67177;47.240;-1.546;2023-04-24T18:09:06;14.10;54.30
77985;DHT22;67177;47.240;-1.546;2023-04-24T18:11:33;14.10;54.50
77985;DHT22;67177;47.240;-1.546;2023-04-24T18:13:59;14.10;54.60
77985;DHT22;67177;47.240;-1.546;2023-04-24T18:16:24;14.00;54.80
77985;DHT22;67177;47.240;-1.546;2023-04-24T18:18:50;13.90;54.70
77985;DHT22;67177;47.240;-1.546;2023-04-24T18:21:16;13.90;54.70
77985;DHT22;67177;47.240;-1.546;2023-04-24T18:23:42;13.80;54.70
77985;DHT22;67177;47.240;-1.546;2023-04-24T18:26:07;13.70;54.90
77985;DHT22;67177;47.240;-1.546;2023-04-24T18:28:33;13.70;54.90
77985;DHT22;67177;47.240;-1.546;2023-04-24T18:30:59;13.60;55.10
77985;DHT22;67177;47.240;-1.546;2023-04-24T18:33:26;13.60;55.10
77985;DHT22;67177;47.240;-1.546;2023-04-24T18:35:52;13.50;54.90
77985;DHT22;67177;47.240;-1.546;2023-04-24T18:38:17;13.40;54.80
77985;DHT22;67177;47.240;-1.546;2023-04-24T18:40:43;13.40;54.90
77985;DHT22;67177;47.240;-1.546;2023-04-24T18:43:09;13.30;55.10
77985;DHT22;67177;47.240;-1.546;2023-04-24T18:45:34;13.30;55.10
77985;DHT22;67177;47.240;-1.546;2023-04-24T18:48:00;13.20;55.20
77985;DHT22;67177;47.240;-1.546;2023-04-24T18:50:27;13.20;55.30
77985;DHT22;67177;47.240;-1.546;2023-04-24T18:52:56;13.10;55.60
77985;DHT22;67177;47.240;-1.546;2023-04-24T18:55:22;13.10;55.70
77985;DHT22;67177;47.240;-1.546;2023-04-24T18:57:48;13.10;55.80
77985;DHT22;67177;47.240;-1.546;2023-04-24T19:00:14;13.00;55.90
77985;DHT22;67177;47.240;-1.546;2023-04-24T19:02:39;13.00;56.00
77985;DHT22;67177;47.240;-1.546;2023-04-24T19:05:05;12.90;56.20
77985;DHT22;67177;47.240;-1.546;2023-04-24T19:07:31;12.90;56.10
77985;DHT22;67177;47.240;-1.546;2023-04-24T19:09:57;12.90;56.30
77985;DHT22;67177;47.240;-1.546;2023-04-24T19:12:23;12.80;56.50
77985;DHT22;67177;47.240;-1.546;2023-04-24T19:14:48;12.80;56.60
77985;DHT22;67177;47.240;-1.546;2023-04-24T19:17:16;12.80;56.80
77985;DHT22;67177;47.240;-1.546;2023-04-24T19:19:47;12.70;56.90
77985;DHT22;67177;47.240;-1.546;2023-04-24T19:22:13;12.70;57.00
77985;DHT22;67177;47.240;-1.546;2023-04-24T19:24:39;12.70;57.20
77985;DHT22;67177;47.240;-1.546;2023-04-24T19:27:04;12.60;57.30
77985;DHT22;67177;47.240;-1.546;2023-04-24T19:29:30;12.60;57.50
77985;DHT22;67177;47.240;-1.546;2023-04-24T19:31:56;12.60;57.50
77985;DHT22;67177;47.240;-1.546;2023-04-24T19:34:23;12.50;57.90
77985;DHT22;67177;47.240;-1.546;2023-04-24T19:36:49;12.50;58.10
77985;DHT22;67177;47.240;-1.546;2023-04-24T19:39:15;12.50;58.10
77985;DHT22;67177;47.240;-1.546;2023-04-24T19:41:40;12.40;58.20
77985;DHT22;67177;47.240;-1.546;2023-04-24T19:44:06;12.40;58.30
77985;DHT22;67177;47.240;-1.546;2023-04-24T19:46:32;12.40;58.40
77985;DHT22;67177;47.240;-1.546;2023-04-24T19:48:57;12.40;58.60
77985;DHT22;67177;47.240;-1.546;2023-04-24T19:51:23;12.40;58.80
77985;DHT22;67177;47.240;-1.546;2023-04-24T19:53:49;12.40;59.00
77985;DHT22;67177;47.240;-1.546;2023-04-24T19:56:14;12.30;59.30
77985;DHT22;67177;47.240;-1.546;2023-04-24T19:58:40;12.30;59.40
77985;DHT22;67177;47.240;-1.546;2023-04-24T20:01:06;12.20;59.50
77985;DHT22;67177;47.240;-1.546;2023-04-24T20:03:32;12.20;59.70
77985;DHT22;67177;47.240;-1.546;2023-04-24T20:05:57;12.20;59.90
77985;DHT22;67177;47.240;-1.546;2023-04-24T20:08:23;12.20;60.00
77985;DHT22;67177;47.240;-1.546;2023-04-24T20:10:48;12.10;60.10
77985;DHT22;67177;47.240;-1.546;2023-04-24T20:13:15;12.10;60.20
77985;DHT22;67177;47.240;-1.546;2023-04-24T20:15:40;12.10;60.50
77985;DHT22;67177;47.240;-1.546;2023-04-24T20:18:06;12.00;60.60
77985;DHT22;67177;47.240;-1.546;2023-04-24T20:20:32;12.00;60.60
77985;DHT22;67177;47.240;-1.546;2023-04-24T20:22:59;12.00;60.80
77985;DHT22;67177;47.240;-1.546;2023-04-24T20:25:25;11.90;60.90
77985;DHT22;67177;47.240;-1.546;2023-04-24T20:27:50;11.90;61.00
77985;DHT22;67177;47.240;-1.546;2023-04-24T20:30:16;11.90;61.10
77985;DHT22;67177;47.240;-1.546;2023-04-24T20:32:42;11.80;61.20
77985;DHT22;67177;47.240;-1.546;2023-04-24T20:35:08;11.80;61.30
77985;DHT22;67177;47.240;-1.546;2023-04-24T20:37:34;11.80;61.50
77985;DHT22;67177;47.240;-1.546;2023-04-24T20:40:00;11.80;61.50
77985;DHT22;67177;47.240;-1.546;2023-04-24T20:42:32;11.80;61.60
77985;DHT22;67177;47.240;-1.546;2023-04-24T20:44:59;11.70;61.60
77985;DHT22;67177;47.240;-1.546;2023-04-24T20:47:25;11.70;61.70
77985;DHT22;67177;47.240;-1.546;2023-04-24T20:49:51;11.70;61.70
77985;DHT22;67177;47.240;-1.546;2023-04-24T20:52:17;11.70;61.80
77985;DHT22;67177;47.240;-1.546;2023-04-24T20:54:42;11.70;61.80
77985;DHT22;67177;47.240;-1.546;2023-04-24T20:57:08;11.70;62.00
77985;DHT22;67177;47.240;-1.546;2023-04-24T20:59:34;11.70;62.00
77985;DHT22;67177;47.240;-1.546;2023-04-24T21:02:00;11.70;62.20
77985;DHT22;67177;47.240;-1.546;2023-04-24T21:04:25;11.70;62.30
77985;DHT22;67177;47.240;-1.546;2023-04-24T21:06:51;11.70;62.40
77985;DHT22;67177;47.240;-1.546;2023-04-24T21:09:17;11.70;62.40
77985;DHT22;67177;47.240;-1.546;2023-04-24T21:11:42;11.80;62.50
77985;DHT22;67177;47.240;-1.546;2023-04-24T21:14:08;11.70;62.50
77985;DHT22;67177;47.240;-1.546;2023-04-24T21:16:35;11.70;62.50
77985;DHT22;67177;47.240;-1.546;2023-04-24T21:19:00;11.70;62.60
77985;DHT22;67177;47.240;-1.546;2023-04-24T21:21:26;11.70;62.70
77985;DHT22;67177;47.240;-1.546;2023-04-24T21:23:52;11.70;62.70
77985;DHT22;67177;47.240;-1.546;2023-04-24T21:26:17;11.60;63.00
77985;DHT22;67177;47.240;-1.546;2023-04-24T21:28:43;11.60;63.00
77985;DHT22;67177;47.240;-1.546;2023-04-24T21:31:09;11.50;63.10
77985;DHT22;67177;47.240;-1.546;2023-04-24T21:33:34;11.50;63.10
77985;DHT22;67177;47.240;-1.546;2023-04-24T21:36:00;11.50;63.10
77985;DHT22;67177;47.240;-1.546;2023-04-24T21:38:26;11.50;63.40
77985;DHT22;67177;47.240;-1.546;2023-04-24T21:40:51;11.40;63.40
77985;DHT22;67177;47.240;-1.546;2023-04-24T21:43:17;11.40;63.50
77985;DHT22;67177;47.240;-1.546;2023-04-24T21:45:44;11.40;63.60
77985;DHT22;67177;47.240;-1.546;2023-04-24T21:48:10;11.30;63.80
77985;DHT22;67177;47.240;-1.546;2023-04-24T21:50:36;11.30;63.80
77985;DHT22;67177;47.240;-1.546;2023-04-24T21:53:01;11.30;63.90
77985;DHT22;67177;47.240;-1.546;2023-04-24T21:55:27;11.30;64.00
77985;DHT22;67177;47.240;-1.546;2023-04-24T21:57:53;11.30;64.00
77985;DHT22;67177;47.240;-1.546;2023-04-24T22:00:19;11.30;64.00
77985;DHT22;67177;47.240;-1.546;2023-04-24T22:02:45;11.30;64.10
77985;DHT22;67177;47.240;-1.546;2023-04-24T22:05:11;11.20;64.20
77985;DHT22;67177;47.240;-1.546;2023-04-24T22:07:41;11.20;64.30
77985;DHT22;67177;47.240;-1.546;2023-04-24T22:10:14;11.20;64.40
77985;DHT22;67177;47.240;-1.546;2023-04-24T22:12:41;11.20;64.60
77985;DHT22;67177;47.240;-1.546;2023-04-24T22:15:08;11.10;64.70
77985;DHT22;67177;47.240;-1.546;2023-04-24T22:17:34;11.10;64.80
77985;DHT22;67177;47.240;-1.546;2023-04-24T22:20:01;11.10;65.00
77985;DHT22;67177;47.240;-1.546;2023-04-24T22:22:27;11.10;65.10
77985;DHT22;67177;47.240;-1.546;2023-04-24T22:24:53;11.00;65.20
77985;DHT22;67177;47.240;-1.546;2023-04-24T22:27:19;11.00;65.30
77985;DHT22;67177;47.240;-1.546;2023-04-24T22:29:44;11.00;65.50
77985;DHT22;67177;47.240;-1.546;2023-04-24T22:32:10;11.00;65.50